Terminal Aerodrome Forecast
Issued by NWS Shreveport, LA

Home | Current Version | Previous Version | Text Only | Print | Product List | Glossary On
Versions: 1 2 3 4 5 6 7 8 9 10 11 12 13
000
FTUS44 KSHV 150530
TAFMLU
TAF
KMLU 150530Z 1506/1606 36004KT P6SM BKN250
     FM151600 36005KT P6SM SCT200 BKN250
     FM160000 00000KT P6SM BKN250=

USA.gov is the U.S. government's official web portal to all federal, state and local government web resources and services.